Terminal Aerodrome Forecast
Issued by NWS

Home | Current Version | Previous Version | Text Only | Print | Product List | Glossary On
Versions: 1 2 3 4 5 6 7 8 9 10 11 12 13 14 15 16 17 18 19 20 21 22 23
000
FTUS43 KLOT 111748
TAFGYY
TAF
KGYY 111748Z 1118/1218 17009KT P6SM SCT070 BKN120
     FM112000 12006KT P6SM BKN120
     FM112200 03006KT P6SM BKN080
     FM120100 34013G19KT P6SM -SHSN OVC035
      TEMPO 1201/1203 5SM -SHSN OVC015
     FM120400 33018G30KT P6SM BKN030
     FM121300 32015G22KT P6SM SCT035 SCT250=

USA.gov is the U.S. government's official web portal to all federal, state and local government web resources and services.